Teruhou Maru No.22 — JD3202 — position and weather

sailwx.info

Track history (hours):
 
Tides and Currents Weather Stations Pressure Air Temp Water Temp Dewpoint Dewpoint Depression Visibility Wind Speed Wind Dir Waves Ship Positions

Teruhou Maru No.22

Last reported at 2015-Jul-28 19:34 UTC. Time now 2015-Jul-31 11:19 UTC.
Position N 34°06' E 134°58'.

Length 76 m; draft 5 m.

Type: Cargo ship. MMSI: 431002552.

Date/timePositionNaut miles runAvg speedWind from/ knotsBaromVisibWave heightAir tempDewpointWater temp
2015-Jul-28 19:34N 34°06' E 134°58'1312.6
2015-Jul-28 18:30N 34°20' E 134°59'1212.3
2015-Jul-28 17:33N 34°31' E 135°02'9 0.6
2015-Jul-28 00:33N 34°38' E 134°54'1010.4
2015-Jul-27 23:33N 34°33' E 135°05'  
2015-Jul-25 10:10N 34°02' E 135°03'711.3
2015-Jul-25 09:33N 34°09' E 135°02'1211.4
2015-Jul-25 08:33N 34°21' E 134°59'1111.5
2015-Jul-25 07:33N 34°32' E 135°03'8 7.5
2015-Jul-25 06:30N 34°37' E 134°55'7 0.4
2015-Jul-24 11:16N 34°41' E 134°49'6 6.7
2015-Jul-24 10:22N 34°37' E 134°54'911.1
2015-Jul-24 09:33N 34°36' E 135°05'9 9.0
2015-Jul-24 08:33N 34°41' E 135°15'1 1.1
2015-Jul-24 07:33N 34°42' E 135°15'0 0.0
2015-Jul-24 06:33N 34°42' E 135°15'0 0.0
2015-Jul-24 05:33N 34°42' E 135°15'0 0.0
2015-Jul-24 04:33N 34°42' E 135°15'0 0.0
2015-Jul-24 03:33N 34°42' E 135°15'2 1.5
2015-Jul-24 02:33N 34°41' E 135°15'1010.3
2015-Jul-24 01:34N 34°35' E 135°05'4 0.2
2015-Jul-23 08:18N 34°37' E 135°02'911.8
2015-Jul-23 07:33N 34°37' E 135°12'5 5.5
2015-Jul-23 06:33N 34°42' E 135°15'0 0.0
2015-Jul-23 05:33N 34°42' E 135°15'0 0.0
2015-Jul-23 04:33N 34°42' E 135°15'0 0.0
2015-Jul-23 03:33N 34°42' E 135°15'0 0.0
2015-Jul-23 02:33N 34°42' E 135°15'0 0.0
2015-Jul-23 01:33N 34°42' E 135°15'0 0.0
2015-Jul-23 00:33N 34°42' E 135°15'0 0.0
2015-Jul-22 23:33N 34°42' E 135°15'3 3.3
2015-Jul-22 22:33N 34°39' E 135°16'1111.1
2015-Jul-22 21:33N 34°36' E 135°03'6 0.3
2015-Jul-22 02:31N 34°37' E 134°56'1414.3
2015-Jul-22 01:33N 34°37' E 135°13'5 5.3
2015-Jul-22 00:33N 34°42' E 135°15'0 0.0
2015-Jul-21 23:32N 34°42' E 135°15'2 1.8
2015-Jul-21 22:33N 34°40' E 135°15'9 9.2
2015-Jul-21 21:33N 34°35' E 135°07'1513.2
2015-Jul-21 20:25N 34°40' E 134°50'  
2015-Jul-19 11:31N 34°41' E 134°46'1312.5
2015-Jul-19 10:30N 34°38' E 135°01'1010.4
2015-Jul-19 09:33N 34°28' E 135°04'  
Track history (hours):
 
Tides and Currents Weather Stations Pressure Air Temp Water Temp Dewpoint Dewpoint Depression Visibility Wind Speed Wind Dir Waves Ship Positions

Teruhou Maru No.22

Last reported at 2015-Jul-28 19:34 UTC. Time now 2015-Jul-31 11:19 UTC.
Position N 34°06' E 134°58'.

Length 76 m; draft 5 m.

Type: Cargo ship. MMSI: 431002552.

Date/timePositionNaut miles runAvg speedWind from/ knotsBaromVisibWave heightAir tempDewpointWater temp
2015-Jul-28 19:34N 34°06' E 134°58'1312.6
2015-Jul-28 18:30N 34°20' E 134°59'1212.3
2015-Jul-28 17:33N 34°31' E 135°02'9 0.6
2015-Jul-28 00:33N 34°38' E 134°54'1010.4
2015-Jul-27 23:33N 34°33' E 135°05'  
2015-Jul-25 10:10N 34°02' E 135°03'711.3
2015-Jul-25 09:33N 34°09' E 135°02'1211.4
2015-Jul-25 08:33N 34°21' E 134°59'1111.5
2015-Jul-25 07:33N 34°32' E 135°03'8 7.5
2015-Jul-25 06:30N 34°37' E 134°55'7 0.4
2015-Jul-24 11:16N 34°41' E 134°49'6 6.7
2015-Jul-24 10:22N 34°37' E 134°54'911.1
2015-Jul-24 09:33N 34°36' E 135°05'9 9.0
2015-Jul-24 08:33N 34°41' E 135°15'1 1.1
2015-Jul-24 07:33N 34°42' E 135°15'0 0.0
2015-Jul-24 06:33N 34°42' E 135°15'0 0.0
2015-Jul-24 05:33N 34°42' E 135°15'0 0.0
2015-Jul-24 04:33N 34°42' E 135°15'0 0.0
2015-Jul-24 03:33N 34°42' E 135°15'2 1.5
2015-Jul-24 02:33N 34°41' E 135°15'1010.3
2015-Jul-24 01:34N 34°35' E 135°05'4 0.2
2015-Jul-23 08:18N 34°37' E 135°02'911.8
2015-Jul-23 07:33N 34°37' E 135°12'5 5.5
2015-Jul-23 06:33N 34°42' E 135°15'0 0.0
2015-Jul-23 05:33N 34°42' E 135°15'0 0.0
2015-Jul-23 04:33N 34°42' E 135°15'0 0.0
2015-Jul-23 03:33N 34°42' E 135°15'0 0.0
2015-Jul-23 02:33N 34°42' E 135°15'0 0.0
2015-Jul-23 01:33N 34°42' E 135°15'0 0.0
2015-Jul-23 00:33N 34°42' E 135°15'0 0.0
2015-Jul-22 23:33N 34°42' E 135°15'3 3.3
2015-Jul-22 22:33N 34°39' E 135°16'1111.1
2015-Jul-22 21:33N 34°36' E 135°03'6 0.3
2015-Jul-22 02:31N 34°37' E 134°56'1414.3
2015-Jul-22 01:33N 34°37' E 135°13'5 5.3
2015-Jul-22 00:33N 34°42' E 135°15'0 0.0
2015-Jul-21 23:32N 34°42' E 135°15'2 1.8
2015-Jul-21 22:33N 34°40' E 135°15'9 9.2
2015-Jul-21 21:33N 34°35' E 135°07'1513.2
2015-Jul-21 20:25N 34°40' E 134°50'  
2015-Jul-19 11:31N 34°41' E 134°46'1312.5
2015-Jul-19 10:30N 34°38' E 135°01'1010.4
2015-Jul-19 09:33N 34°28' E 135°04'  

Dump ship's entire track history